Tiempo atmosférico en la estación meteorológica de Chandrexa De Queixa, Ourense (990 m.)



Fecha
DESCASC
Temp. máxima en grados centígrados (hora)
DESCASC
Temp. mínima en grados centígrados (hora)
DESCASC
Temp. media en grados centígrados
DESCASC
Racha de viento máxima en m/sg (hora)
DESCASC
Velocidad máxima media en intervalos de 10 minutos(hora)
DESCASC
Precipitaciones diarias en mm
DESCASC
Precipitaciones de 00:00 a 06:00 en mm
DESCASC
Precipitaciones de 06:00 a 12:00 en mm
DESCASC
Precipitaciones de 12:00 a 18:00 en mm
DESCASC
Precipitaciones de 18:00 a 24:00 en mm
DESCASC
12-10-2019 22.1 (16:40) 12.8 (00:00) 17.5 23.06 (18:00) 15 (15:20) 0 0 0 0 0
20-09-2019 23.8 (14:50) 12.1 (00:00) 17.9 13.89 (16:50) 9.44 (16:50) 1.6 0 0 0 1.6
13-10-2019 13.9 (14:00) 11.9 (00:00) 12.9 24.17 (05:40) 17.5 (05:40) 15.4 0 4.6 7.4 3.4
30-09-2019 25.7 (15:50) 11.7 (00:00) 18.7 8.89 (14:30) 4.44 (16:00) 0.2 0.2 0 0 0
04-10-2019 21.8 (15:00) 10.9 (00:00) 16.3 5.28 (15:40) 2.5 (15:40) 1 0.6 0.4 0 0
19-09-2019 24 (14:20) 10.5 (00:00) 17.3 7.22 (15:30) 3.89 (15:50) 0 0 0 0 0
01-10-2019 19.1 (17:20) 10.4 (00:00) 14.8 8.06 (16:50) 3.89 (15:30) 0.6 0 0.6 0 0
17-10-2019 17 (16:10) 10 (00:00) 13.5 12.22 (13:10) 6.67 (13:00) 9.4 6.8 2 0 0.6
21-09-2019 18.6 (14:30) 9.5 (00:00) 14.1 20.83 (13:50) 12.22 (07:30) 5.8 0 0.2 2.6 3
24-09-2019 15.6 (16:00) 9.4 (00:00) 12.5 12.78 (03:10) 8.89 (04:10) 5 0 4.8 0.2 0
18-09-2019 25.5 (17:30) 9.3 (00:00) 17.4 5 (14:50) 2.78 (10:20) 0.2 0 0.2 0 0
25-09-2019 17.5 (14:30) 9.3 (00:00) 13.4 5.28 (13:00) 2.22 (14:30) 0 0 0 0 0
08-10-2019 21.9 (14:50) 9.2 (00:00) 15.5 5.83 (18:30) 2.78 (18:40) 0.4 0 0 0 0.4
11-10-2019 25 (16:00) 9 (08:20) 17 14.72 (13:20) 11.11 (13:30) 0 0 0 0 0
16-10-2019 14 (14:50) 8.9 (00:00) 11.4 20.28 (22:40) 13.61 (10:00) 12.4 0 0 1 11.4
23-09-2019 19.5 (17:30) 8.4 (00:00) 13.9 13.06 (23:30) 9.17 (23:30) 0 0 0 0 0
22-09-2019 16.8 (15:40) 7.9 (00:00) 12.3 11.67 (03:50) 6.11 (01:20) 0.6 0.6 0 0 0
02-10-2019 17.2 (17:10) 7.8 (00:00) 12.5 5 (12:10) 2.22 (13:20) 0 0 0 0 0
06-10-2019 23 (16:10) 7.3 (00:00) 15.2 5.56 (14:50) 2.5 (14:50) 0 0 0 0 0
29-09-2019 24.4 (15:20) 6.8 (00:00) 15.6 7.5 (13:10) 3.89 (12:40) 0.2 0 0 0 0.2
27-09-2019 17.2 (18:10) 6 (00:00) 11.6 7.22 (14:40) 2.78 (11:50) 0 0 0 0 0
05-10-2019 21.9 (16:30) 5.7 (08:10) 13.8 6.94 (17:30) 2.78 (17:00) 0 0 0 0 0
07-10-2019 26.7 (15:00) 5.6 (00:00) 16.2 5 (16:00) 2.5 (15:10) 0 0 0 0 0
26-09-2019 22.3 (16:00) 5.6 (00:00) 13.9 6.11 (18:10) 2.78 (18:10) 0 0 0 0 0
14-10-2019 12.5 (00:50) 5.5 (00:00) 9 21.67 (02:00) 11.94 (02:00) 36.2 22 6.2 5.6 2.4
09-10-2019 15.2 (16:50) 5.3 (00:00) 10.3 5 (18:00) 2.22 (15:10) 0.8 0.8 0 0 0
03-10-2019 22.1 (15:50) 5.2 (00:00) 13.7 6.94 (16:30) 2.5 (15:20) 0 0 0 0 0
15-10-2019 9.5 (14:30) 5.2 (00:00) 7.3 15.28 (22:30) 9.17 (22:30) 1 0.4 0.4 0 0.2
10-10-2019 21.4 (17:30) 3.1 (00:00) 12.2 3.89 (16:40) 2.22 (14:10) 0 0 0 0 0
28-09-2019 25.7 (17:10) 2.2 (00:00) 14 5.28 (16:50) 3.06 (17:40) 0 0 0 0 0

Gráficas

Temp. máximas Temp. mínimas Temp. medias Precipitaciones Rachas de viento máximas Velocidades máximas media en intervalos de 10 minutos

Datos horarios

Fecha y hora oficial Temperatura (ºC) Velocidad del viento (km/h) Dirección del viento Racha (km/h) Dirección de racha Precipitación (mm) Presión (hPa) Tendencia (hPa) Humedad (%)
2019-10-17 23:00:00 10.3 5 Oeste 19 Oeste 0.2 -- -- 96
2019-10-17 22:00:00 11.1 6 Oeste 23 Oeste 0.4 -- -- 95
2019-10-17 21:00:00 12.8 6 Sudoeste 14 Sudoeste 0 -- -- 95
2019-10-17 20:00:00 13 5 Sur 16 Sudoeste 0 -- -- 91
2019-10-17 19:00:00 13.6 11 Sudoeste 33 Sudoeste 0 -- -- 88
2019-10-17 18:00:00 14.4 12 Sudoeste 36 Oeste 0 -- -- 79
2019-10-17 17:00:00 16 18 Sudoeste 36 Sudoeste 0 -- -- 73
2019-10-17 16:00:00 16.9 17 Sudoeste 42 Sur 0 -- -- 66
2019-10-17 15:00:00 16.2 21 Sudoeste 41 Sudoeste 0 -- -- 64
2019-10-17 14:00:00 15.3 22 Sudoeste 44 Sudoeste 0 -- -- 73
2019-10-17 13:00:00 13.5 24 Sur 42 Sur 0 -- -- 82
2019-10-17 12:00:00 11.3 14 Sudoeste 35 Oeste 0 -- -- 91
2019-10-17 11:00:00 11.5 10 Oeste 29 Sudoeste 0.4 -- -- 96
2019-10-17 10:00:00 10.9 8 Sudoeste 21 Sur 0.2 -- -- 99
2019-10-17 09:00:00 11 9 Sudoeste 25 Sudoeste 0.8 -- -- 99
2019-10-17 08:00:00 11.2 10 Sudoeste 23 Sudoeste 0.6 -- -- 98
2019-10-17 07:00:00 11.2 9 Sur 19 Sur 0 -- -- 99
2019-10-17 06:00:00 11 5 Sur 15 Sur 0.2 -- -- 100
2019-10-17 05:00:00 11 4 Sudoeste 18 Sur 0.8 -- -- 99
2019-10-17 04:00:00 11 15 Sur 40 Sudoeste 0 -- -- 99
2019-10-17 03:00:00 10.7 17 Sur 35 Sur 0.6 -- -- 99
2019-10-17 02:00:00 10.7 17 Sur 35 Sur 2.4 -- -- 99
2019-10-17 01:00:00 10.6 5 Sudoeste 33 Sur 2.8 -- -- 99
2019-10-17 00:00:00 10.6 22 Sur 54 Sur 2.2 -- -- 98
2019-10-16 23:00:00 10.7 36 Sur 73 Sur 2.6 -- -- 97
2019-10-16 22:00:00 10.6 38 Sur 66 Sur 0.6 -- -- 97
2019-10-16 21:00:00 10.6 42 Sur 67 Sur 3.4 -- -- 96
2019-10-16 20:00:00 10.9 39 Sur 66 Sur 1 -- -- 96
2019-10-16 19:00:00 10.6 46 Sur 71 Sur 1.6 -- -- 96
2019-10-16 18:00:00 10.8 42 Sur 64 Sur 1 -- -- 95
2019-10-16 17:00:00 11.4 45 Sur 72 Sudoeste 0 -- -- 92
2019-10-16 16:00:00 11.9 41 Sur 60 Sudoeste 0 -- -- 90
2019-10-16 15:00:00 13 36 Sur 63 Sur 0 -- -- 81
2019-10-16 14:00:00 11.4 33 Sur 53 Sur 0 -- -- 92
2019-10-16 13:00:00 10.6 30 Sur 48 Sur 0 -- -- 95
2019-10-16 12:00:00 10.4 32 Sur 58 Sudoeste 0 -- -- 94
2019-10-16 11:00:00 10.3 40 Sur 66 Sur 0 -- -- 93
2019-10-16 10:00:00 9.8 49 Sur 72 Sur 0 -- -- 92
2019-10-16 09:00:00 9 42 Sur 57 Sur 0 -- -- 94
2019-10-16 08:00:00 9.3 28 Sur 51 Sur 0 -- -- 94
2019-10-16 07:00:00 9.3 23 Sur 42 Sur 0 -- -- 93
2019-10-16 06:00:00 9.2 31 Sur 52 Sur 0 -- -- 95
2019-10-16 05:00:00 9.2 36 Sur 65 Sur 0 -- -- 94
2019-10-16 04:00:00 9 44 Sur 63 Sur 0 -- -- 93
2019-10-16 03:00:00 8.9 45 Sur 66 Sur 0 -- -- 93
2019-10-16 02:00:00 8.9 32 Sur 53 Sur 0 -- -- 92
2019-10-16 01:00:00 8.9 26 Sur 51 Sur 0 -- -- 91
2019-10-16 00:00:00 8.9 28 Sur 49 Sur 0 -- -- 90
2019-10-15 23:00:00 9 30 Sur 55 Sudoeste 0 -- -- 92
2019-10-15 22:00:00 8.9 28 Sur 51 Sudoeste 0 -- -- 93
2019-10-15 21:00:00 8.8 29 Sur 42 Sur 0 -- -- 91
2019-10-15 20:00:00 8.9 23 Sur 50 Sudoeste 0 -- -- 89
2019-10-15 19:00:00 8.7 25 Sur 46 Sudoeste 0.2 -- -- 90
2019-10-15 18:00:00 8.9 23 Sur 43 Sudoeste 0 -- -- 89
2019-10-15 17:00:00 9.3 21 Sur 39 Sudoeste 0 -- -- 80
2019-10-15 16:00:00 8.6 18 Sudoeste 44 Sur 0 -- -- 93
2019-10-15 15:00:00 9.2 9 Sudoeste 36 Sudoeste 0 -- -- 93
2019-10-15 14:00:00 8.9 23 Sur 34 Sur 0 -- -- 90
2019-10-15 13:00:00 9 13 Sudoeste 30 Sudoeste 0 -- -- 88
2019-10-15 12:00:00 8.2 18 Sur 32 Sur 0 -- -- 90
2019-10-15 11:00:00 7.5 12 Sur 20 Sur 0 -- -- 92
2019-10-15 10:00:00 6.2 12 Sur 21 Sur 0 -- -- 96
2019-10-15 09:00:00 5.3 11 Sur 18 Sur 0 -- -- 96
2019-10-15 08:00:00 5.7 7 Sur 22 Sudoeste 0 -- -- 95
2019-10-15 07:00:00 6.1 5 Sudoeste 19 Sudoeste 0.4 -- -- 98
2019-10-15 06:00:00 6.1 5 Sudoeste 15 Sur 0.2 -- -- 98
2019-10-15 05:00:00 6 0 Calma 16 Oeste 0 -- -- 95
2019-10-15 04:00:00 5.9 4 Oeste 14 Sudoeste 0 -- -- 98
2019-10-15 03:00:00 5.9 5 Oeste 23 Oeste 0.2 -- -- 98
2019-10-15 02:00:00 5.9 7 Oeste 20 Noroeste 0 -- -- 98
2019-10-15 01:00:00 5.8 5 Oeste 26 Oeste 0 -- -- 97
2019-10-15 00:00:00 5.8 5 Oeste 27 Oeste 0 -- -- 98
2019-10-14 23:00:00 5.6 8 Oeste 29 Noroeste 0.2 -- -- 98
2019-10-14 22:00:00 5.6 7 Oeste 35 Oeste 0.8 -- -- 98
2019-10-14 21:00:00 5.6 6 Oeste 32 Noroeste 0 -- -- 97
2019-10-14 20:00:00 5.6 9 Oeste 42 Oeste 0 -- -- 96
2019-10-14 19:00:00 6.1 10 Oeste 43 Oeste 1.4 -- -- 95
2019-10-14 18:00:00 6.8 7 Oeste 40 Oeste 0.6 -- -- 95
2019-10-14 17:00:00 7.2 11 Oeste 35 Oeste 0 -- -- 91
2019-10-14 16:00:00 7.8 7 Sudoeste 29 Oeste 0.8 -- -- 99
2019-10-14 15:00:00 6.5 6 Sudoeste 44 Noroeste 4 -- -- 96
2019-10-14 14:00:00 10.6 18 Sudoeste 39 Sudoeste 0 -- -- 81
2019-10-14 13:00:00 8.3 21 Sudoeste 32 Sudoeste 0.2 -- -- 94
2019-10-14 12:00:00 7.3 14 Sudoeste 32 Oeste 1.6 -- -- 95
2019-10-14 11:00:00 7.7 13 Sur 36 Sudoeste 2 -- -- 97
2019-10-14 10:00:00 7.3 15 Sur 32 Sur 0.2 -- -- 98
2019-10-14 09:00:00 6.7 11 Sur 19 Sur 0 -- -- 97
2019-10-14 08:00:00 6.6 3 Sudoeste 33 Sur 0 -- -- 95
2019-10-14 07:00:00 6.8 17 Sur 27 Sur 2.4 -- -- 97
2019-10-14 06:00:00 7.3 15 Sur 31 Sudoeste 3.8 -- -- 95
2019-10-14 05:00:00 7.8 13 Sur 28 Sur 6.8 -- -- 97
2019-10-14 04:00:00 8.3 3 Oeste 13 Oeste 4.8 -- -- 96
2019-10-14 03:00:00 9.6 3 Oeste 57 Sur 5.4 -- -- 95
2019-10-14 02:00:00 12.5 43 Sur 78 Sur 1 -- -- 92
2019-10-14 01:00:00 12.5 27 Sur 49 Sur 0.2 -- -- 91
2019-10-14 00:00:00 12 27 Sur 60 Sur 1.6 -- -- 94
2019-10-13 23:00:00 12.3 28 Sur 58 Sur 1.2 -- -- 93
2019-10-13 22:00:00 13 33 Sur 59 Sur 0.2 -- -- 88
2019-10-13 21:00:00 13.5 31 Sur 73 Sur 0 -- -- 84
2019-10-13 20:00:00 12.9 34 Sur 49 Sur 0 -- -- 90
2019-10-13 19:00:00 12.5 17 Sudoeste 47 Sur 0.4 -- -- 96
2019-10-13 18:00:00 12.6 14 Sur 31 Sudoeste 1.6 -- -- 96
2019-10-13 17:00:00 13 12 Sudoeste 25 Oeste 2.8 -- -- 95
2019-10-13 16:00:00 13 15 Sudoeste 41 Sudoeste 1.6 -- -- 94
2019-10-13 15:00:00 13.2 23 Sudoeste 60 Sur 0.2 -- -- 92
2019-10-13 14:00:00 13.9 23 Sur 47 Sur 0.6 -- -- 95
2019-10-13 13:00:00 13.5 29 Sur 55 Sur 0.6 -- -- 93
2019-10-13 12:00:00 13.2 32 Sur 54 Sur 0.4 -- -- 95
2019-10-13 11:00:00 12.8 16 Sur 59 Sur 1 -- -- 96
2019-10-13 10:00:00 12.2 34 Sur 59 Sur 3.2 -- -- 95
2019-10-13 09:00:00 13.1 43 Sur 70 Sudoeste 0 -- -- 84
2019-10-13 08:00:00 12.8 44 Sur 79 Sur 0 -- -- 85
2019-10-13 07:00:00 12.4 47 Sur 86 Sur 0 -- -- 85
2019-10-13 06:00:00 12.2 55 Sur 87 Sur 0 -- -- 82
2019-10-13 05:00:00 12.3 54 Sur 82 Sur 0 -- -- 79
2019-10-13 04:00:00 11.9 37 Sur 71 Sur 0 -- -- 82
2019-10-13 03:00:00 12.2 43 Sur 69 Sur 0 -- -- 82
2019-10-13 02:00:00 12.2 46 Sur 72 Sudeste 0 -- -- 79
2019-10-13 01:00:00 12.3 33 Sur 68 Sur 0 -- -- 79
2019-10-13 00:00:00 12.8 39 Sur 66 Sur 0 -- -- 79
2019-10-12 23:00:00 13.8 43 Sur 68 Sur 0 -- -- 76
2019-10-12 22:00:00 14.7 47 Sudoeste 70 Sudoeste 0 -- -- 76
2019-10-12 21:00:00 15.6 41 Sur 67 Sudoeste 0 -- -- 76
2019-10-12 20:00:00 16.9 30 Sudoeste 56 Sudoeste 0 -- -- 73
2019-10-12 19:00:00 18.9 32 Sur 71 Sur 0 -- -- 62
2019-10-12 18:00:00 20.7 50 Sur 83 Sudoeste 0 -- -- 53
2019-10-12 17:00:00 21.6 45 Sur 67 Sur 0 -- -- 50
2019-10-12 16:00:00 21.7 43 Sur 78 Sur 0 -- -- 52
2019-10-12 15:00:00 21.1 48 Sur 74 Sudoeste 0 -- -- 53
2019-10-12 14:00:00 20.4 39 Sur 74 Sudoeste 0 -- -- 54
2019-10-12 13:00:00 18.8 36 Sur 58 Sur 0 -- -- 64
2019-10-12 12:00:00 18.5 32 Sur 53 Sur 0 -- -- 60
2019-10-12 11:00:00 17.4 32 Sur 51 Sur 0 -- -- 62
2019-10-12 10:00:00 15.1 32 Sur 67 Sur 0 -- -- 66
2019-10-12 09:00:00 14 33 Sur 68 Sur 0 -- -- 73
2019-10-12 08:00:00 13.7 33 Sur 55 Sur 0 -- -- 81
2019-10-12 07:00:00 13.9 23 Sur 60 Sur 0 -- -- 80
2019-10-12 06:00:00 15.1 33 Sur 57 Sur 0 -- -- 74
2019-10-12 05:00:00 15.2 29 Sur 53 Sur 0 -- -- 73
2019-10-12 04:00:00 16.1 36 Sur 57 Sur 0 -- -- 64
2019-10-12 03:00:00 16.2 30 Sur 48 Sur 0 -- -- 63
2019-10-12 02:00:00 16 19 Sudoeste 35 Sudoeste 0 -- -- 65
2019-10-12 01:00:00 15.9 16 Sur 30 Sudoeste 0 -- -- 68
2019-10-12 00:00:00 15.7 19 Sur 35 Sudoeste 0 -- -- 69
2019-10-11 23:00:00 13.5 2 Oeste 6 Sudoeste 0 -- -- 80
2019-10-11 22:00:00 15 2 Sur 12 Sur 0 -- -- 73
2019-10-11 21:00:00 16.7 4 Sur 10 Sur 0 -- -- 66
2019-10-11 20:00:00 19.1 4 Sur 23 Oeste 0 -- -- 59
2019-10-11 19:00:00 21.9 8 Oeste 38 Sudoeste 0 -- -- 50
2019-10-11 18:00:00 23.9 22 Sudoeste 39 Oeste 0 -- -- 44
2019-10-11 17:00:00 24.5 17 Sudoeste 40 Sudoeste 0 -- -- 44
2019-10-11 16:00:00 25 18 Sur 41 Sudeste 0 -- -- 42
2019-10-11 15:00:00 24.3 28 Sur 50 Sur 0 -- -- 42
2019-10-11 14:00:00 23.5 30 Sur 53 Sur 0 -- -- 42
2019-10-11 13:00:00 22.8 32 Sur 53 Sur 0 -- -- 42
2019-10-11 12:00:00 20.9 17 Sur 36 Sur 0 -- -- 45
2019-10-11 11:00:00 16.6 5 Sur 18 Sur 0 -- -- 54
2019-10-11 10:00:00 10.5 0 Calma 0 Calma 0 -- -- 77
2019-10-11 09:00:00 9.6 0 Calma 0 Calma 0 -- -- 78
2019-10-11 08:00:00 9.3 0 Calma 0 Calma 0 -- -- 80
2019-10-11 07:00:00 9.6 0 Calma 0 Calma 0 -- -- 80
2019-10-11 06:00:00 10.4 0 Calma 0 Calma 0 -- -- 76
2019-10-11 05:00:00 10.2 0 Calma 0 Calma 0 -- -- 76
2019-10-11 04:00:00 10 0 Calma 0 Calma 0 -- -- 81
2019-10-11 03:00:00 10 0 Calma 0 Calma 0 -- -- 81
2019-10-11 02:00:00 9.7 0 Calma 0 Calma 0 -- -- 83
2019-10-11 01:00:00 9.6 0 Calma 0 Calma 0 -- -- 85
2019-10-11 00:00:00 10.3 0 Calma 0 Calma 0 -- -- 83
2019-10-10 23:00:00 11 0 Calma 0 Calma 0 -- -- 80
2019-10-10 22:00:00 11.7 0 Calma 2 Este 0 -- -- 81
2019-10-10 21:00:00 13.7 0 Calma 4 Oeste 0 -- -- 73
2019-10-10 20:00:00 16.6 2 Nordeste 8 Nordeste 0 -- -- 61
2019-10-10 19:00:00 19 3 Norte 11 Norte 0 -- -- 55
2019-10-10 18:00:00 21.2 4 Norte 9 Norte 0 -- -- 47
2019-10-10 17:00:00 21.1 4 Norte 14 Norte 0 -- -- 46
2019-10-10 16:00:00 20.6 6 Norte 11 Nordeste 0 -- -- 44
2019-10-10 15:00:00 19.2 5 Norte 13 Norte 0 -- -- 47
2019-10-10 14:00:00 17.2 7 Norte 12 Nordeste 0 -- -- 58
2019-10-10 13:00:00 14.8 6 Norte 10 Norte 0 -- -- 65
2019-10-10 12:00:00 12.3 4 Nordeste 6 Nordeste 0 -- -- 71
2019-10-10 11:00:00 8.6 0 Calma 4 Sudoeste 0 -- -- 86
2019-10-10 10:00:00 4.7 0 Calma 5 Oeste 0 -- -- 100
2019-10-10 09:00:00 3.1 2 Sudoeste 5 Sudoeste 0 -- -- 100
2019-10-10 08:00:00 3.2 2 Sur 5 Sur 0 -- -- 100
2019-10-10 07:00:00 3.3 4 Sur 5 Sur 0 -- -- 99
2019-10-10 06:00:00 3.6 3 Sudoeste 5 Sudoeste 0 -- -- 98
2019-10-10 05:00:00 4 0 Calma 5 Oeste 0 -- -- 98
2019-10-10 04:00:00 4.5 0 Calma 5 Sudoeste 0 -- -- 97
2019-10-10 03:00:00 5.3 0 Calma 7 Sur 0 -- -- 97
2019-10-10 02:00:00 5.8 2 Sur 5 Sudoeste 0 -- -- 98
2019-10-10 01:00:00 5.8 4 Sur 8 Sur 0 -- -- 94
2019-10-10 00:00:00 6.5 0 Calma 8 Sur 0 -- -- 92
2019-10-09 23:00:00 7.3 3 Sur 6 Sudeste 0 -- -- 88
2019-10-09 22:00:00 8.1 0 Calma 6 Sur 0 -- -- 84
2019-10-09 21:00:00 9.3 0 Calma 4 Norte 0 -- -- 80
2019-10-09 20:00:00 11.1 2 Nordeste 13 Norte 0 -- -- 70
2019-10-09 19:00:00 12.9 5 Norte 15 Norte 0 -- -- 64
2019-10-09 18:00:00 13.9 8 Norte 18 Nordeste 0 -- -- 62
2019-10-09 17:00:00 14.9 6 Norte 17 Noroeste 0 -- -- 60
2019-10-09 16:00:00 14.8 6 Norte 18 Nordeste 0 -- -- 62
2019-10-09 15:00:00 14.5 7 Nordeste 16 Norte 0 -- -- 63
2019-10-09 14:00:00 13.2 5 Nordeste 15 Nordeste 0 -- -- 62
2019-10-09 13:00:00 12.3 6 Nordeste 17 Nordeste 0 -- -- 71
2019-10-09 12:00:00 11.2 5 Nordeste 15 Norte 0 -- -- 76
2019-10-09 11:00:00 9.9 2 Nordeste 6 Nordeste 0 -- -- 83
2019-10-09 10:00:00 7.6 0 Calma 4 Nordeste 0 -- -- 95
2019-10-09 09:00:00 6.6 2 Sudeste 9 Nordeste 0 -- -- 98
2019-10-09 08:00:00 6.5 3 Norte 9 Nordeste 0 -- -- 100
2019-10-09 07:00:00 5.4 0 Calma 3 Sudoeste 0 -- -- 99
2019-10-09 06:00:00 6 0 Calma 7 Nordeste 0 -- -- 97
2019-10-09 05:00:00 6.8 2 Nordeste 14 Norte 0.2 -- -- 95
2019-10-09 04:00:00 8.3 4 Norte 14 Norte 0 -- -- 98
2019-10-09 03:00:00 8.7 3 Norte 7 Nordeste 0 -- -- 98
2019-10-09 02:00:00 8.7 3 Nordeste 13 Norte 0.2 -- -- 97
2019-10-09 01:00:00 9.9 4 Norte 9 Norte 0.4 -- -- 98
2019-10-09 00:00:00 10.7 0 Calma 6 Norte 0.2 -- -- 97
2019-10-08 23:00:00 11.2 5 Norte 14 Norte 0.2 -- -- 96
2019-10-08 22:00:00 12.3 5 Norte 14 Norte 0 -- -- 96
2019-10-08 21:00:00 13.3 0 Calma 10 Noroeste 0 -- -- 96
2019-10-08 20:00:00 14.1 6 Norte 17 Norte 0 -- -- 94
2019-10-08 19:00:00 15.6 7 Norte 21 Norte 0 -- -- 91
2019-10-08 18:00:00 18.7 5 Oeste 18 Sudoeste 0 -- -- 80
2019-10-08 17:00:00 20 6 Oeste 16 Oeste 0 -- -- 74
2019-10-08 16:00:00 20.7 5 Sudoeste 20 Oeste 0 -- -- 70
2019-10-08 15:00:00 21.9 9 Oeste 21 Oeste 0 -- -- 65
2019-10-08 14:00:00 20.9 5 Oeste 19 Sudoeste 0 -- -- 68
2019-10-08 13:00:00 19.7 4 Sudoeste 13 Sur 0 -- -- 72
2019-10-08 12:00:00 16.5 8 Sudeste 13 Sudeste 0 -- -- 86
2019-10-08 11:00:00 13.6 7 Sudeste 12 Sur 0 -- -- 97
2019-10-08 10:00:00 11.2 2 Sur 5 Sur 0 -- -- 98
2019-10-08 09:00:00 9.7 2 Sur 6 Oeste 0 -- -- 97
2019-10-08 08:00:00 9.4 2 Sudoeste 7 Oeste 0 -- -- 95
2019-10-08 07:00:00 9.5 3 Sudoeste 10 Sudoeste 0 -- -- 94
2019-10-08 06:00:00 9.2 4 Sudoeste 9 Oeste 0 -- -- 94
2019-10-08 05:00:00 9.3 3 Sudoeste 6 Oeste 0 -- -- 92
2019-10-08 04:00:00 9.5 2 Sudoeste 9 Oeste 0 -- -- 89
2019-10-08 03:00:00 9.9 3 Sur 6 Oeste 0 -- -- 87
2019-10-08 02:00:00 10.3 3 Sudoeste 6 Sudoeste 0 -- -- 83
2019-10-08 01:00:00 10.8 4 Sudoeste 6 Sudoeste 0 -- -- 80
2019-10-08 00:00:00 11.5 0 Calma 10 Oeste 0 -- -- 76
2019-10-07 23:00:00 12.3 5 Sur 12 Sur 0 -- -- 72
2019-10-07 22:00:00 13.7 5 Sur 11 Sur 0 -- -- 67
2019-10-07 21:00:00 15.9 5 Sur 10 Sudeste 0 -- -- 60
2019-10-07 20:00:00 19.4 3 Sur 10 Norte 0 -- -- 54
2019-10-07 19:00:00 21.3 5 Norte 17 Noroeste 0 -- -- 45
2019-10-07 18:00:00 23.8 6 Noroeste 17 Noroeste 0 -- -- 48
2019-10-07 17:00:00 25.6 6 Noroeste 16 Oeste 0 -- -- 39
2019-10-07 16:00:00 26 5 Noroeste 18 Noroeste 0 -- -- 37
2019-10-07 15:00:00 26.7 8 Sudoeste 14 Sudoeste 0 -- -- 33
2019-10-07 14:00:00 25.4 4 Sudoeste 7 Sudoeste 0 -- -- 20
2019-10-07 13:00:00 22.3 3 Sudoeste 6 Sur 0 -- -- 24
2019-10-07 12:00:00 17.8 3 Sur 5 Sur 0 -- -- 43
2019-10-07 11:00:00 12.4 2 Sudoeste 5 Sur 0 -- -- 52
2019-10-07 10:00:00 7.8 4 Oeste 6 Oeste 0 -- -- 62
2019-10-07 09:00:00 5.6 4 Sudoeste 12 Sudoeste 0 -- -- 67
2019-10-07 08:00:00 5.6 4 Sudoeste 8 Sudoeste 0 -- -- 80
2019-10-07 07:00:00 5.9 5 Sudoeste 10 Sudoeste 0 -- -- 76
2019-10-07 06:00:00 6.4 4 Sudoeste 11 Oeste 0 -- -- 79
2019-10-07 05:00:00 6.8 5 Oeste 12 Sudoeste 0 -- -- 83
2019-10-07 04:00:00 7.6 5 Sudoeste 9 Sudoeste 0 -- -- 83
2019-10-07 03:00:00 8.4 4 Sudoeste 11 Sudoeste 0 -- -- 89
2019-10-07 02:00:00 9 4 Sur 6 Sur 0 -- -- 87
2019-10-07 01:00:00 9.7 3 Sur 5 Sur 0 -- -- 88
2019-10-07 00:00:00 10.4 3 Sudoeste 7 Sur 0 -- -- 89
2019-10-06 23:00:00 11.1 5 Sur 8 Sur 0 -- -- 84
2019-10-06 22:00:00 12.1 6 Sur 13 Sur 0 -- -- 78
2019-10-06 21:00:00 13.7 6 Sur 13 Sudeste 0 -- -- 72
2019-10-06 20:00:00 16.8 3 Sur 11 Norte 0 -- -- 61
2019-10-06 19:00:00 18.8 5 Norte 17 Sudoeste 0 -- -- 58
2019-10-06 18:00:00 21.8 5 Oeste 18 Oeste 0 -- -- 55
2019-10-06 17:00:00 22.8 6 Oeste 18 Sur 0 -- -- 53
2019-10-06 16:00:00 22.8 6 Oeste 18 Noroeste 0 -- -- 50
2019-10-06 15:00:00 22.6 3 Oeste 20 Oeste 0 -- -- 53
2019-10-06 14:00:00 21.8 5 Sudoeste 12 Sudeste 0 -- -- 44
2019-10-06 13:00:00 19.3 2 Noroeste 9 Nordeste 0 -- -- 67
2019-10-06 12:00:00 16.2 4 Nordeste 9 Nordeste 0 -- -- 81
2019-10-06 11:00:00 12.4 2 Sur 3 Sur 0 -- -- 98
2019-10-06 10:00:00 9.9 0 Calma 4 Sudoeste 0 -- -- 100
2019-10-06 09:00:00 8.4 4 Sur 6 Sur 0 -- -- 100
2019-10-06 08:00:00 8.1 2 Sur 5 Sur 0 -- -- 100
2019-10-06 07:00:00 7.6 2 Sudeste 6 Sur 0 -- -- 100
2019-10-06 06:00:00 7.6 0 Calma 5 Sur 0 -- -- 99
2019-10-06 05:00:00 7.4 3 Sur 7 Sudoeste 0 -- -- 99
2019-10-06 04:00:00 7.6 0 Calma 9 Sur 0 -- -- 97
2019-10-06 03:00:00 7.7 5 Sur 9 Sur 0 -- -- 93
2019-10-06 02:00:00 8.1 0 Calma 7 Sur 0 -- -- 93
2019-10-06 01:00:00 8.8 0 Calma 4 Sur 0 -- -- 93
2019-10-06 00:00:00 9.8 0 Calma 5 Sudeste 0 -- -- 91
2019-10-05 23:00:00 11.1 5 Sur 9 Sudeste 0 -- -- 89
2019-10-05 22:00:00 12 0 Calma 7 Este 0 -- -- 84
2019-10-05 21:00:00 12.8 4 Sur 8 Sur 0 -- -- 78
2019-10-05 20:00:00 14.7 0 Calma 11 Noroeste 0 -- -- 71
2019-10-05 19:00:00 16.9 4 Oeste 15 Oeste 0 -- -- 58
2019-10-05 18:00:00 18.1 4 Noroeste 25 Oeste 0 -- -- 68
2019-10-05 17:00:00 20.2 10 Oeste 24 Oeste 0 -- -- 53
2019-10-05 16:00:00 21.2 3 Oeste 13 Oeste 0 -- -- 61
2019-10-05 15:00:00 18.6 7 Norte 18 Norte 0 -- -- 70
2019-10-05 14:00:00 17.5 7 Norte 12 Nordeste 0 -- -- 75
2019-10-05 13:00:00 16.6 6 Norte 14 Nordeste 0 -- -- 76
2019-10-05 12:00:00 14.7 3 Sudoeste 8 Sudeste 0 -- -- 87
2019-10-05 11:00:00 10 0 Calma 4 Oeste 0 -- -- 93
2019-10-05 10:00:00 7.4 3 Sur 5 Sur 0 -- -- 99
2019-10-05 09:00:00 6.2 0 Calma 6 Sur 0 -- -- 100
2019-10-05 08:00:00 5.8 3 Sudoeste 5 Sudoeste 0 -- -- 97
2019-10-05 07:00:00 6.7 2 Sur 4 Sudoeste 0 -- -- 98
2019-10-05 06:00:00 7.4 2 Sur 5 Sudoeste 0 -- -- 98
2019-10-05 05:00:00 8.2 0 Calma 4 Sur 0 -- -- 98
2019-10-05 04:00:00 8.8 2 Sudoeste 6 Sur 0 -- -- 94
2019-10-05 03:00:00 9.6 0 Calma 5 Sur 0 -- -- 98
2019-10-05 02:00:00 9.2 0 Calma 10 Sur 0 -- -- 96
2019-10-05 01:00:00 9.6 2 Sur 8 Sudoeste 0 -- -- 93
2019-10-05 00:00:00 10.9 3 Sur 7 Sur 0 -- -- 92
2019-10-04 23:00:00 12.4 3 Nordeste 6 Nordeste 0 -- -- 92
2019-10-04 22:00:00 14 3 Norte 10 Norte 0 -- -- 86
2019-10-04 21:00:00 15 3 Sur 8 Noroeste 0 -- -- 81
2019-10-04 20:00:00 15.4 4 Norte 12 Noroeste 0 -- -- 80
2019-10-04 19:00:00 16.2 3 Noroeste 12 Oeste 0 -- -- 76
2019-10-04 18:00:00 16.9 5 Noroeste 17 Noroeste 0 -- -- 75
2019-10-04 17:00:00 16.4 3 Noroeste 16 Nordeste 0 -- -- 80
2019-10-04 16:00:00 16.3 6 Nordeste 19 Norte 0 -- -- 81
2019-10-04 15:00:00 21.8 0 Calma 2 Oeste 0 -- -- 63
2019-10-04 14:00:00 19.7 0 Calma 2 Oeste 0 -- -- 68
2019-10-04 13:00:00 17.2 0 Calma 0 Calma 0 -- -- 77
2019-10-04 12:00:00 14.6 0 Calma 2 Noroeste 0 -- -- 94
2019-10-04 11:00:00 14.6 0 Calma 0 Calma 0 -- -- 93
2019-10-04 10:00:00 13.9 0 Calma 0 Calma 0.2 -- -- 97
2019-10-04 09:00:00 13.8 0 Calma -- -- 0 -- -- 98
2019-10-04 08:00:00 13.8 0 Calma 0 Calma 0 -- -- 97
2019-10-04 07:00:00 14 0 Calma 0 Calma 0.2 -- -- 98
2019-10-04 06:00:00 14.2 0 Calma 2 Noroeste 0.2 -- -- 96
2019-10-04 05:00:00 14.4 0 Calma 4 Oeste 0 -- -- 96
2019-10-04 04:00:00 14.7 0 Calma 4 Sur 0 -- -- 96
2019-10-04 03:00:00 14.9 0 Calma 4 Noroeste 0.2 -- -- 95
2019-10-04 02:00:00 15.1 0 Calma 5 Sudoeste 0.2 -- -- 96
2019-10-04 01:00:00 15.2 0 Calma 2 Este 0 -- -- 95
2019-10-04 00:00:00 15.4 0 Calma 3 Sudoeste 0 -- -- 93
2019-10-03 23:00:00 15.5 0 Calma 6 Sur 0 -- -- 92
2019-10-03 22:00:00 15.8 3 Sur 6 Sur 0 -- -- 89
2019-10-03 21:00:00 16.6 0 Calma 4 Sur 0 -- -- 85
2019-10-03 20:00:00 17.3 2 Sudoeste 9 Sudoeste 0 -- -- 79
2019-10-03 19:00:00 18.1 3 Sudoeste 10 Noroeste 0 -- -- 76
2019-10-03 18:00:00 19.2 5 Sudoeste 18 Oeste 0 -- -- 72
2019-10-03 17:00:00 20.1 6 Oeste 25 Oeste 0 -- -- 67
2019-10-03 16:00:00 21.7 6 Oeste 18 Oeste 0 -- -- 58
2019-10-03 15:00:00 21.4 7 Oeste 24 Oeste 0 -- -- 56
2019-10-03 14:00:00 21.1 8 Sur 17 Oeste 0 -- -- 41
2019-10-03 13:00:00 19 3 Oeste 13 Sudeste 0 -- -- 31
2019-10-03 12:00:00 16.7 3 Sudoeste 9 Oeste 0 -- -- 51
2019-10-03 11:00:00 11.1 4 Sudoeste 9 Oeste 0 -- -- 84
2019-10-03 10:00:00 7.4 0 Calma 7 Sudoeste 0 -- -- 99
2019-10-03 09:00:00 5.2 3 Sur 8 Sudoeste 0 -- -- 100
2019-10-03 08:00:00 5.3 3 Sudoeste 7 Sudoeste 0 -- -- 100
2019-10-03 07:00:00 5.4 4 Sur 10 Sur 0 -- -- 99
2019-10-03 06:00:00 5.6 4 Sur 8 Sur 0 -- -- 99
2019-10-03 05:00:00 5.9 0 Calma 5 Sur 0 -- -- 100
2019-10-03 04:00:00 6.1 0 Calma 4 Oeste 0 -- -- 99
2019-10-03 03:00:00 6.4 2 Sudoeste 4 Sur 0 -- -- 98
2019-10-03 02:00:00 6.8 2 Sur 4 Sur 0 -- -- 96
2019-10-03 01:00:00 7.2 0 Calma 5 Sur 0 -- -- 95
2019-10-03 00:00:00 7.8 0 Calma 5 Oeste 0 -- -- 94
2019-10-02 23:00:00 8.4 4 Sur 9 Sur 0 -- -- 90
2019-10-02 22:00:00 9.5 6 Sur 10 Sur 0 -- -- 86
2019-10-02 21:00:00 11.3 3 Sur 9 Sur 0 -- -- 80
2019-10-02 20:00:00 13.3 2 Sur 14 Norte 0 -- -- 73
2019-10-02 19:00:00 15.1 6 Noroeste 15 Noroeste 0 -- -- 66
2019-10-02 18:00:00 16.4 6 Noroeste 15 Noroeste 0 -- -- 62
2019-10-02 17:00:00 17.1 6 Norte 16 Norte 0 -- -- 60
2019-10-02 16:00:00 16.5 7 Norte 16 Norte 0 -- -- 61
2019-10-02 15:00:00 15.2 7 Norte 17 Norte 0 -- -- 64
2019-10-02 14:00:00 13.5 5 Norte 17 Nordeste 0 -- -- 71
2019-10-02 13:00:00 12.8 6 Norte 18 Nordeste 0 -- -- 75
2019-10-02 12:00:00 12.2 7 Nordeste 15 Nordeste 0 -- -- 76
2019-10-02 11:00:00 11.6 4 Norte 12 Norte 0 -- -- 80
2019-10-02 10:00:00 9.8 0 Calma 5 Nordeste 0 -- -- 89
2019-10-02 09:00:00 8.9 0 Calma 6 Norte 0 -- -- 90
2019-10-02 08:00:00 8.9 2 Norte 5 Norte 0 -- -- 93
2019-10-02 07:00:00 9 3 Norte 10 Noroeste 0 -- -- 91
2019-10-02 06:00:00 9.3 3 Norte 14 Noroeste 0 -- -- 88
2019-10-02 05:00:00 9.6 7 Noroeste 15 Noroeste 0 -- -- 90
2019-10-02 04:00:00 9.9 2 Norte 12 Nordeste 0 -- -- 87
2019-10-02 03:00:00 9.9 2 Noroeste 8 Noroeste 0 -- -- 88
2019-10-02 02:00:00 10.1 0 Calma 8 Nordeste 0 -- -- 86
2019-10-02 01:00:00 10.4 4 Norte 9 Sudoeste 0 -- -- 89
2019-10-02 00:00:00 10.5 4 Sudoeste 12 Sur 0 -- -- 90
2019-10-01 23:00:00 10.8 4 Sudoeste 17 Sur 0 -- -- 88
2019-10-01 22:00:00 11.8 5 Sudoeste 16 Noroeste 0 -- -- 82
2019-10-01 21:00:00 13 4 Noroeste 15 Oeste 0 -- -- 79
2019-10-01 20:00:00 14 4 Oeste 24 Noroeste 0 -- -- 77
2019-10-01 19:00:00 15.8 9 Noroeste 29 Sudoeste 0 -- -- 70
2019-10-01 18:00:00 18.4 9 Sudoeste 29 Oeste 0 -- -- 60
2019-10-01 17:00:00 17.9 6 Oeste 29 Oeste 0 -- -- 64
2019-10-01 16:00:00 18 8 Oeste 27 Sudoeste 0 -- -- 67
2019-10-01 15:00:00 16.7 5 Oeste 22 Sudoeste 0 -- -- 70
2019-10-01 14:00:00 15.6 7 Oeste 21 Oeste 0 -- -- 76
2019-10-01 13:00:00 14.5 7 Noroeste 22 Sudoeste 0 -- -- 83
2019-10-01 12:00:00 13.3 6 Oeste 17 Oeste 0 -- -- 89
2019-10-01 11:00:00 12.9 4 Oeste 21 Oeste 0.2 -- -- 95
2019-10-01 10:00:00 12.6 5 Sudoeste 18 Oeste 0.4 -- -- 97
2019-10-01 09:00:00 12.8 2 Noroeste 18 Sur 0 -- -- 97
2019-10-01 08:00:00 12.6 6 Sudoeste 17 Sur 0 -- -- 94
2019-10-01 07:00:00 12.4 0 Calma 14 Sudeste 0 -- -- 90
2019-10-01 06:00:00 12 6 Sur 18 Sur 0 -- -- 91
2019-10-01 05:00:00 11.6 6 Sur 14 Sur 0 -- -- 89
2019-10-01 04:00:00 12.9 0 Calma 18 Oeste 0 -- -- 87
2019-10-01 03:00:00 13.3 5 Sudoeste 15 Sur 0 -- -- 91
2019-10-01 02:00:00 13 4 Oeste 17 Noroeste 0 -- -- 95
2019-10-01 01:00:00 12.6 0 Calma 8 Nordeste 0 -- -- 91
2019-10-01 00:00:00 13.1 2 Sur 10 Sur 0 -- -- 88
2019-09-30 23:00:00 14.6 3 Sur 8 Sur 0 -- -- 89
2019-09-30 22:00:00 15.6 0 Calma 12 Sur 0 -- -- 87
2019-09-30 21:00:00 17 5 Oeste 14 Sudoeste 0 -- -- 85
2019-09-30 20:00:00 18 5 Oeste 25 Oeste 0 -- -- 83
2019-09-30 19:00:00 20 7 Oeste 22 Noroeste 0 -- -- 76
2019-09-30 18:00:00 23.8 6 Oeste 31 Sur 0 -- -- 62
2019-09-30 17:00:00 25.2 13 Sudoeste 28 Oeste 0 -- -- 53
2019-09-30 16:00:00 25.5 16 Oeste 27 Sudoeste 0 -- -- 51
2019-09-30 15:00:00 25.3 13 Sudoeste 32 Sur 0 -- -- 49
2019-09-30 14:00:00 24.1 9 Sudoeste 24 Oeste 0 -- -- 53
2019-09-30 13:00:00 22 9 Sudoeste 20 Oeste 0 -- -- 67
2019-09-30 12:00:00 18.4 4 Nordeste 9 Norte 0 -- -- 85
2019-09-30 11:00:00 16.5 3 Norte 5 Nordeste 0 -- -- 88
2019-09-30 10:00:00 13.5 0 Calma 5 Oeste 0 -- -- 100
2019-09-30 09:00:00 11.7 3 Sudoeste 5 Sudoeste 0 -- -- 99
2019-09-30 08:00:00 11.8 2 Sur 5 Sudoeste 0 -- -- 98
2019-09-30 07:00:00 12.4 4 Sur 8 Sur 0 -- -- 97
2019-09-30 06:00:00 13.4 0 Calma 6 Sur 0 -- -- 98
2019-09-30 05:00:00 14.1 3 Sur 5 Sudeste 0 -- -- 96
2019-09-30 04:00:00 14.5 0 Calma 8 Sur 0 -- -- 97
2019-09-30 03:00:00 14.7 5 Sur 9 Sur 0.2 -- -- 96
2019-09-30 02:00:00 15.2 3 Sudeste 8 Sur 0 -- -- 96
2019-09-30 01:00:00 15.1 0 Calma 5 Noroeste 0 -- -- 97
2019-09-30 00:00:00 15 0 Calma 6 Sur 0.2 -- -- 95
2019-09-29 23:00:00 14.9 0 Calma 3 Sur 0 -- -- 94
2019-09-29 22:00:00 14.9 2 Noroeste 15 Sur 0 -- -- 92
2019-09-29 21:00:00 15.3 12 Sur 16 Sur 0 -- -- 89
2019-09-29 20:00:00 16.3 4 Sur 15 Sur 0 -- -- 87
2019-09-29 19:00:00 17.1 5 Oeste 21 Sudoeste 0 -- -- 89
2019-09-29 18:00:00 18.2 4 Oeste 21 Sudoeste 0 -- -- 85
2019-09-29 17:00:00 20.6 8 Oeste 24 Noroeste 0 -- -- 69
2019-09-29 16:00:00 23 6 Sudoeste 25 Sudoeste 0 -- -- 61
2019-09-29 15:00:00 24 9 Sudoeste 22 Sudoeste 0 -- -- 56
2019-09-29 14:00:00 23.1 11 Sudoeste 27 Oeste 0 -- -- 56
2019-09-29 13:00:00 21.8 12 Sudoeste 26 Sudoeste 0 -- -- 54
2019-09-29 12:00:00 20.6 12 Sudoeste 23 Sur 0 -- -- 53
2019-09-29 11:00:00 16.3 7 Sudoeste 13 Sur 0 -- -- 63
2019-09-29 10:00:00 10.8 5 Sudoeste 13 Sudoeste 0 -- -- 70
2019-09-29 09:00:00 7.8 5 Sudoeste 10 Sudoeste 0 -- -- 66
2019-09-29 08:00:00 7.2 3 Sudoeste 10 Oeste 0 -- -- 61
2019-09-29 07:00:00 7 3 Sudoeste 9 Oeste 0 -- -- 60
2019-09-29 06:00:00 6.9 5 Sudoeste 10 Sudoeste 0 -- -- 65
2019-09-29 05:00:00 7.3 4 Sudoeste 9 Oeste 0 -- -- 61
2019-09-29 04:00:00 7.5 5 Sudoeste 10 Sur 0 -- -- 67
2019-09-29 03:00:00 7.9 4 Sudoeste 10 Sudoeste 0 -- -- 68
2019-09-29 02:00:00 8.7 4 Sudoeste 10 Sudoeste 0 -- -- 84
2019-09-29 01:00:00 9.6 3 Sudoeste 9 Oeste 0 -- -- 84
2019-09-29 00:00:00 10.4 4 Sudoeste 10 Sur 0 -- -- 83
2019-09-28 23:00:00 11.6 3 Sur 9 Sudeste 0 -- -- 72
2019-09-28 22:00:00 13 0 Calma 8 Sudoeste 0 -- -- 72
2019-09-28 21:00:00 15.5 5 Sur 12 Sudoeste 0 -- -- 59
2019-09-28 20:00:00 19.2 3 Sudoeste 12 Sudoeste 0 -- -- 56
2019-09-28 19:00:00 22 9 Sudoeste 17 Sudoeste 0 -- -- 38
2019-09-28 18:00:00 24.5 10 Sudoeste 19 Sudoeste 0 -- -- 29
2019-09-28 17:00:00 25.6 8 Oeste 19 Oeste 0 -- -- 25
2019-09-28 16:00:00 24 3 Oeste 16 Oeste 0 -- -- 31
2019-09-28 15:00:00 23.5 5 Noroeste 15 Oeste 0 -- -- 35
2019-09-28 14:00:00 19 6 Norte 10 Norte 0 -- -- 52
2019-09-28 13:00:00 16.5 5 Norte 9 Nordeste 0 -- -- 43
2019-09-28 12:00:00 13.4 3 Sudoeste 6 Sur 0 -- -- 64
2019-09-28 11:00:00 9 0 Calma 4 Sur 0 -- -- 70
2019-09-28 10:00:00 4.8 2 Sur 4 Sudoeste 0 -- -- 88
2019-09-28 09:00:00 2.2 2 Sudoeste 4 Sudoeste 0 -- -- 97
2019-09-28 08:00:00 3.2 0 Calma 4 Sudoeste 0 -- -- 96
2019-09-28 07:00:00 4.6 0 Calma 3 Sur 0 -- -- 96
2019-09-28 06:00:00 5.6 0 Calma 5 Sur 0 -- -- 95
2019-09-28 05:00:00 6.4 4 Sur 5 Sur 0 -- -- 92
2019-09-28 04:00:00 6.6 2 Sudoeste 6 Sur 0 -- -- 92
2019-09-28 03:00:00 6.3 2 Sur 8 Sudoeste 0 -- -- 90
2019-09-28 02:00:00 6.7 0 Calma 6 Sur 0 -- -- 94
2019-09-28 01:00:00 7.5 3 Sur 9 Sur 0 -- -- 91
2019-09-28 00:00:00 8.7 3 Sur 9 Sudoeste 0 -- -- 91
2019-09-27 23:00:00 9.9 5 Sur 12 Sur 0 -- -- 92
2019-09-27 22:00:00 11.1 3 Sur 6 Sudeste 0 -- -- 91
2019-09-27 21:00:00 12.3 2 Sur 14 Oeste 0 -- -- 87
2019-09-27 20:00:00 14.1 4 Oeste 15 Oeste 0 -- -- 81
2019-09-27 19:00:00 15.9 7 Oeste 20 Sudoeste 0 -- -- 77
2019-09-27 18:00:00 17.1 9 Oeste 22 Sudoeste 0 -- -- 76
2019-09-27 17:00:00 15.5 5 Sudoeste 18 Noroeste 0 -- -- 82
2019-09-27 16:00:00 15.2 5 Oeste 20 Oeste 0 -- -- 86
2019-09-27 15:00:00 14.9 6 Oeste 26 Oeste 0 -- -- 90
2019-09-27 14:00:00 16.3 5 Sudoeste 12 Oeste 0 -- -- 89
2019-09-27 13:00:00 16.2 4 Oeste 22 Sudoeste 0 -- -- 83
2019-09-27 12:00:00 15.8 8 Sudoeste 20 Oeste 0 -- -- 86
2019-09-27 11:00:00 12.6 2 Sudeste 5 Sudeste 0 -- -- 97
2019-09-27 10:00:00 10.8 0 Calma 5 Sudoeste 0 -- -- 98
2019-09-27 09:00:00 8.5 2 Sudoeste 6 Sudoeste 0 -- -- 98
2019-09-27 08:00:00 7.8 4 Sur 6 Sudoeste 0 -- -- 98
2019-09-27 07:00:00 6.8 4 Sudoeste 9 Oeste 0 -- -- 97
2019-09-27 06:00:00 6.1 3 Oeste 12 Sudoeste 0 -- -- 97
2019-09-27 05:00:00 6.1 5 Sudoeste 11 Oeste 0 -- -- 94
2019-09-27 04:00:00 6.8 4 Sudoeste 12 Sudoeste 0 -- -- 94
2019-09-27 03:00:00 7.4 5 Sur 12 Sur 0 -- -- 94
2019-09-27 02:00:00 8.4 4 Sur 8 Sur 0 -- -- 94
2019-09-27 01:00:00 9.1 3 Noroeste 12 Oeste 0 -- -- 91
2019-09-27 00:00:00 10.2 9 Sur 12 Sudeste 0 -- -- 86
2019-09-26 23:00:00 11.4 0 Calma 7 Oeste 0 -- -- 92
2019-09-26 22:00:00 11.7 5 Sur 12 Sudoeste 0 -- -- 76
2019-09-26 21:00:00 13.7 4 Sur 9 Sur 0 -- -- 76
2019-09-26 20:00:00 16.7 3 Noroeste 13 Noroeste 0 -- -- 67
2019-09-26 19:00:00 18.4 5 Oeste 22 Oeste 0 -- -- 59
2019-09-26 18:00:00 20.2 6 Oeste 19 Oeste 0 -- -- 54
2019-09-26 17:00:00 21.5 6 Oeste 19 Noroeste 0 -- -- 48
2019-09-26 16:00:00 22.3 6 Oeste 16 Oeste 0 -- -- 47
2019-09-26 15:00:00 21.6 6 Sudoeste 17 Oeste 0 -- -- 46
2019-09-26 14:00:00 19.9 4 Oeste 16 Sudoeste 0 -- -- 49
2019-09-26 13:00:00 17.7 5 Oeste 13 Sudoeste 0 -- -- 64
2019-09-26 12:00:00 14.1 2 Oeste 9 Sur 0 -- -- 76
2019-09-26 11:00:00 9.7 0 Calma 5 Sur 0 -- -- 94
2019-09-26 10:00:00 7 0 Calma 9 Sudoeste 0 -- -- 100
2019-09-26 09:00:00 5.9 3 Sur 6 Oeste 0 -- -- 100
2019-09-26 08:00:00 5.6 4 Sur 6 Sudoeste 0 -- -- 97
2019-09-26 07:00:00 6.1 3 Sudoeste 12 Sur 0 -- -- 97
2019-09-26 06:00:00 6.8 2 Sudoeste 17 Sur 0 -- -- 96
2019-09-26 05:00:00 7.5 7 Sur 12 Sur 0 -- -- 95
2019-09-26 04:00:00 8.5 5 Sur 14 Sudeste 0 -- -- 92
2019-09-26 03:00:00 9.6 4 Sur 6 Sudeste 0 -- -- 91
2019-09-26 02:00:00 10.1 4 Sur 6 Sur 0 -- -- 91
2019-09-26 01:00:00 10.3 4 Sudoeste 9 Sudoeste 0 -- -- 91
2019-09-26 00:00:00 11.4 3 Sur 13 Oeste 0 -- -- 87
2019-09-25 23:00:00 12 5 Oeste 15 Oeste 0 -- -- 87
2019-09-25 22:00:00 12.3 5 Sur 9 Sudeste 0 -- -- 86
2019-09-25 21:00:00 13.1 3 Sudoeste 9 Sur 0 -- -- 83
2019-09-25 20:00:00 13.7 0 Calma 13 Noroeste 0 -- -- 79
2019-09-25 19:00:00 14.5 6 Oeste 18 Oeste 0 -- -- 74
2019-09-25 18:00:00 15.5 5 Oeste 14 Oeste 0 -- -- 70
2019-09-25 17:00:00 16.1 6 Oeste 15 Oeste 0 -- -- 70
2019-09-25 16:00:00 15.6 5 Oeste 14 Oeste 0 -- -- 70
2019-09-25 15:00:00 16.8 5 Oeste 17 Noroeste 0 -- -- 65
2019-09-25 14:00:00 17 5 Noroeste 16 Oeste 0 -- -- 63
2019-09-25 13:00:00 15.5 6 Oeste 19 Noroeste 0 -- -- 67
2019-09-25 12:00:00 13.8 4 Oeste 14 Noroeste 0 -- -- 74
2019-09-25 11:00:00 12.3 5 Sudoeste 11 Oeste 0 -- -- 85
2019-09-25 10:00:00 10.3 3 Sur 10 Sudeste 0 -- -- 95
2019-09-25 09:00:00 9.5 5 Sur 8 Sudeste 0 -- -- 97
2019-09-25 08:00:00 9.4 0 Calma 5 Nordeste 0 -- -- 98
2019-09-25 07:00:00 9.5 0 Calma 6 Sur 0 -- -- 95
2019-09-25 06:00:00 9.6 3 Sudeste 6 Sudeste 0 -- -- 93
2019-09-25 05:00:00 9.5 2 Sudeste 14 Oeste 0 -- -- 91
2019-09-25 04:00:00 9.9 2 Noroeste 9 Sudoeste 0 -- -- 92
2019-09-25 03:00:00 9.9 4 Sudoeste 17 Sudoeste 0 -- -- 92
2019-09-25 02:00:00 9.8 3 Sur 10 Sudoeste 0 -- -- 92
2019-09-25 01:00:00 9.7 5 Sudoeste 12 Sudoeste 0 -- -- 93
2019-09-25 00:00:00 9.4 3 Sudoeste 17 Sur 0 -- -- 92
2019-09-24 23:00:00 10 8 Sudoeste 19 Sur 0 -- -- 89
2019-09-24 22:00:00 11 3 Oeste 18 Oeste 0 -- -- 91
2019-09-24 21:00:00 11.8 8 Sudoeste 23 Sudoeste 0 -- -- 87
2019-09-24 20:00:00 12.6 7 Oeste 23 Noroeste 0 -- -- 85
2019-09-24 19:00:00 13.3 10 Oeste 34 Oeste 0 -- -- 84
2019-09-24 18:00:00 13.9 11 Oeste 29 Oeste 0 -- -- 80
2019-09-24 17:00:00 15.1 8 Oeste 31 Oeste 0 -- -- 79
2019-09-24 16:00:00 15.6 14 Sudoeste 28 Sudoeste 0 -- -- 80
2019-09-24 15:00:00 14.3 9 Sudoeste 27 Oeste 0 -- -- 86
2019-09-24 14:00:00 14.6 10 Oeste 27 Oeste 0 -- -- 90
2019-09-24 13:00:00 14.8 10 Oeste 26 Noroeste 0.2 -- -- 94
2019-09-24 12:00:00 15.1 7 Oeste 29 Sudoeste 0.8 -- -- 94
2019-09-24 11:00:00 14.4 15 Sudoeste 31 Sudoeste 0.8 -- -- 98
2019-09-24 10:00:00 13.6 13 Sur 22 Sur 0.8 -- -- 99
2019-09-24 09:00:00 13.3 12 Sur 22 Sur 1 -- -- 98
2019-09-24 08:00:00 13.3 14 Sur 38 Sudoeste 1.2 -- -- 97
2019-09-24 07:00:00 13.4 17 Sur 36 Sudoeste 0.2 -- -- 96
2019-09-24 06:00:00 13.3 21 Sur 40 Sur 0 -- -- 94
2019-09-24 05:00:00 13.4 21 Sur 46 Sur 0 -- -- 91
2019-09-24 04:00:00 13.4 27 Sur 46 Sur 0 -- -- 86
2019-09-24 03:00:00 13.5 26 Sur 41 Sur 0 -- -- 84
2019-09-24 02:00:00 13.7 22 Sur 40 Sur 0 -- -- 85
2019-09-24 01:00:00 13.4 22 Sur 42 Sudoeste 0 -- -- 88
2019-09-24 00:00:00 13.5 23 Sur 47 Sudoeste 0 -- -- 85
2019-09-23 23:00:00 13.9 14 Sudoeste 41 Sur 0 -- -- 80
2019-09-23 22:00:00 14.4 22 Sur 45 Sur 0 -- -- 79
2019-09-23 21:00:00 14.6 29 Sur 42 Sur 0 -- -- 77
2019-09-23 20:00:00 15.7 24 Sur 43 Sur 0 -- -- 73
2019-09-23 19:00:00 17 22 Sur 37 Sur 0 -- -- 68
2019-09-23 18:00:00 18.6 18 Sur 35 Sur 0 -- -- 62
2019-09-23 17:00:00 19.4 19 Sur 32 Sur 0 -- -- 58
2019-09-23 16:00:00 17.1 12 Sur 25 Sur 0 -- -- 63
2019-09-23 15:00:00 16.2 16 Sur 32 Sur 0 -- -- 66
2019-09-23 14:00:00 16.5 15 Sudoeste 25 Sudoeste 0 -- -- 66
2019-09-23 13:00:00 14.8 7 Sudoeste 23 Sudoeste 0 -- -- 68
2019-09-23 12:00:00 14.1 11 Oeste 23 Sudoeste 0 -- -- 67
2019-09-23 11:00:00 12.9 5 Oeste 17 Oeste 0 -- -- 78
2019-09-23 10:00:00 10.6 2 Norte 7 Norte 0 -- -- 85
2019-09-23 09:00:00 9.4 2 Sudeste 8 Sur 0 -- -- 93
2019-09-23 08:00:00 8.6 2 Sudeste 7 Norte 0 -- -- 94
2019-09-23 07:00:00 8.7 0 Calma 11 Sudeste 0 -- -- 91
2019-09-23 06:00:00 8.6 7 Sur 16 Sur 0 -- -- 91
2019-09-23 05:00:00 8.6 11 Sur 17 Sur 0 -- -- 91
2019-09-23 04:00:00 8.6 8 Sur 19 Sudoeste 0 -- -- 91
2019-09-23 03:00:00 8.6 8 Sur 16 Sur 0 -- -- 91
2019-09-23 02:00:00 8.4 2 Sur 9 Sur 0 -- -- 93
2019-09-23 01:00:00 8.9 3 Sur 10 Sur 0 -- -- 93
2019-09-23 00:00:00 9.5 5 Sur 14 Sudoeste 0 -- -- 90
2019-09-22 23:00:00 9.8 10 Sur 16 Sur 0 -- -- 89
2019-09-22 22:00:00 10.8 3 Sudeste 14 Oeste 0 -- -- 91
2019-09-22 21:00:00 11.8 5 Oeste 26 Sudoeste 0 -- -- 87
2019-09-22 20:00:00 13.1 5 Oeste 19 Noroeste 0 -- -- 80
2019-09-22 19:00:00 13.9 8 Oeste 21 Oeste 0 -- -- 77
2019-09-22 18:00:00 14.6 10 Oeste 22 Oeste 0 -- -- 75
2019-09-22 17:00:00 14.9 5 Oeste 16 Sudoeste 0 -- -- 72
2019-09-22 16:00:00 15.8 6 Oeste 21 Sudoeste 0 -- -- 67
2019-09-22 15:00:00 15.7 10 Sudoeste 26 Sudoeste 0 -- -- 63
2019-09-22 14:00:00 16.4 10 Sudoeste 31 Sudoeste 0 -- -- 60
2019-09-22 13:00:00 15.3 10 Sudoeste 26 Sudoeste 0 -- -- 64
2019-09-22 12:00:00 12.5 10 Sudoeste 28 Sudoeste 0 -- -- 77
2019-09-22 11:00:00 12.3 14 Sudoeste 27 Sur 0 -- -- 72
2019-09-22 10:00:00 10.2 8 Sur 26 Sur 0 -- -- 81
2019-09-22 09:00:00 7.9 15 Sur 23 Sudoeste 0 -- -- 90
2019-09-22 08:00:00 8.8 6 Sudoeste 22 Sudoeste 0 -- -- 91
2019-09-22 07:00:00 9.8 8 Sudoeste 32 Sur 0 -- -- 87
2019-09-22 06:00:00 10.1 13 Sur 37 Sudoeste 0 -- -- 91
2019-09-22 05:00:00 10.3 16 Sur 33 Sur 0.2 -- -- 91
2019-09-22 04:00:00 10.4 21 Sur 42 Sudoeste 0.2 -- -- 93
2019-09-22 03:00:00 10.6 10 Sudoeste 40 Sur 0.2 -- -- 95
2019-09-22 02:00:00 10.7 18 Sudoeste 38 Sur 0 -- -- 92
2019-09-22 01:00:00 10.7 14 Sudoeste 30 Sudoeste 0 -- -- 92
2019-09-22 00:00:00 10.2 17 Sudoeste 36 Sur 0 -- -- 90
2019-09-21 23:00:00 10.1 18 Sur 36 Sur 0.2 -- -- 94
2019-09-21 22:00:00 9.5 16 Sur 44 Sur 0.8 -- -- 93
2019-09-21 21:00:00 10.9 15 Sur 42 Sur 1.2 -- -- 95
2019-09-21 20:00:00 14.2 29 Sudoeste 61 Sur 0.4 -- -- 95
2019-09-21 19:00:00 14.4 39 Sur 69 Sudoeste 0.4 -- -- 95
2019-09-21 18:00:00 14.7 27 Sur 51 Sudoeste 2.2 -- -- 95
2019-09-21 17:00:00 15.1 28 Sur 48 Sur 0.4 -- -- 94
2019-09-21 16:00:00 15.7 38 Sur 62 Sur 0 -- -- 89
2019-09-21 15:00:00 17.5 28 Sur 65 Sur 0 -- -- 84
2019-09-21 14:00:00 16.9 40 Sur 75 Sur 0 -- -- 81
2019-09-21 13:00:00 16.2 30 Sur 64 Sudoeste 0 -- -- 84
2019-09-21 12:00:00 16.2 38 Sur 67 Sur 0.2 -- -- 81
2019-09-21 11:00:00 14.1 34 Sur 59 Sudeste 0 -- -- 91
2019-09-21 10:00:00 13.6 33 Sur 58 Sur 0 -- -- 91
2019-09-21 09:00:00 13.6 25 Sur 45 Sur 0 -- -- 89
2019-09-21 08:00:00 13.5 29 Sur 64 Sur 0 -- -- 90
2019-09-21 07:00:00 13.7 33 Sur 51 Sur 0 -- -- 88
2019-09-21 06:00:00 13.5 16 Sur 31 Sur 0 -- -- 86
2019-09-21 05:00:00 13.8 15 Sudoeste 36 Sudoeste 0 -- -- 83
2019-09-21 04:00:00 13.8 20 Sudoeste 41 Sur 0 -- -- 86
2019-09-21 03:00:00 13.4 22 Sur 37 Sur 0 -- -- 88
2019-09-21 02:00:00 13.4 14 Sur 39 Sur 0 -- -- 89
2019-09-21 01:00:00 13.5 16 Sur 27 Sur 0 -- -- 93
2019-09-21 00:00:00 13.2 0 Calma 9 Sudoeste 0 -- -- 96
2019-09-20 23:00:00 14.2 0 Calma 8 Sudeste 0 -- -- 92
2019-09-20 22:00:00 15.7 3 Sur 24 Sudoeste 1.6 -- -- 89
2019-09-20 21:00:00 17.2 3 Oeste 24 Oeste 0 -- -- 75
2019-09-20 20:00:00 19 5 Oeste 34 Sur 0 -- -- 73
2019-09-20 19:00:00 20.1 15 Sur 34 Sur 0 -- -- 54
2019-09-20 18:00:00 23.1 21 Sur 47 Sur 0 -- -- 46
2019-09-20 17:00:00 23 27 Sur 50 Sur 0 -- -- 48
2019-09-20 16:00:00 22.3 21 Sur 44 Sur 0 -- -- 51
2019-09-20 15:00:00 23.4 29 Sur 42 Sur 0 -- -- 47
2019-09-20 14:00:00 23.4 22 Sur 39 Sur 0 -- -- 51
2019-09-20 13:00:00 20.2 21 Sur 36 Sur 0 -- -- 61
2019-09-20 12:00:00 17.4 9 Este 21 Sur 0 -- -- 74
2019-09-20 11:00:00 14.5 11 Norte 14 Nordeste 0 -- -- 88
2019-09-20 10:00:00 13.2 5 Norte 12 Norte 0 -- -- 92
2019-09-20 09:00:00 12.4 6 Norte 10 Norte 0 -- -- 93
2019-09-20 08:00:00 12.2 4 Norte 11 Norte 0 -- -- 93
2019-09-20 07:00:00 12.4 5 Norte 12 Norte 0 -- -- 91
2019-09-20 06:00:00 12.1 2 Noroeste 11 Nordeste 0 -- -- 94
2019-09-20 05:00:00 12.6 9 Norte 13 Nordeste 0 -- -- 92
2019-09-20 04:00:00 12.7 4 Norte 9 Nordeste 0 -- -- 92
2019-09-20 03:00:00 12.1 0 Calma 8 Oeste 0 -- -- 96
2019-09-20 02:00:00 12.5 0 Calma 4 Sudoeste 0 -- -- 94
2019-09-20 01:00:00 13 2 Sudoeste 5 Sudoeste 0 -- -- 93
2019-09-20 00:00:00 13.8 3 Sudoeste 8 Sudoeste 0 -- -- 91
2019-09-19 23:00:00 14.7 3 Sur 8 Oeste 0 -- -- 88
2019-09-19 22:00:00 15.8 3 Sur 10 Sudoeste 0 -- -- 84
2019-09-19 21:00:00 17.5 0 Calma 6 Sudeste 0 -- -- 77
2019-09-19 20:00:00 19.6 0 Calma 9 Norte 0 -- -- 67
2019-09-19 19:00:00 21.7 3 Norte 12 Nordeste 0 -- -- 57
2019-09-19 18:00:00 23.5 3 Noroeste 10 Sur 0 -- -- 56
2019-09-19 17:00:00 21.9 4 Sudoeste 12 Sudoeste 0 -- -- 64
2019-09-19 16:00:00 17.8 7 Sur 26 Sudeste 0 -- -- 79
2019-09-19 15:00:00 21.3 7 Sur 14 Este 0 -- -- 64
2019-09-19 14:00:00 21.8 2 Sur 12 Nordeste 0 -- -- 60
2019-09-19 13:00:00 21.5 7 Nordeste 15 Norte 0 -- -- 66
2019-09-19 12:00:00 19.2 6 Norte 9 Norte 0 -- -- 71
2019-09-19 11:00:00 17.6 0 Calma 4 Nordeste 0 -- -- 75
2019-09-19 10:00:00 13.2 2 Sudoeste 4 Sudoeste 0 -- -- 96
2019-09-19 09:00:00 10.6 0 Calma 3 Sur 0 -- -- 98
2019-09-19 08:00:00 10.6 0 Calma 4 Sudoeste 0 -- -- 98
2019-09-19 07:00:00 10.7 3 Sur 4 Sur 0 -- -- 97
2019-09-19 06:00:00 11 0 Calma 4 Sudoeste 0 -- -- 96
2019-09-19 05:00:00 11.3 3 Sudoeste 6 Sudoeste 0 -- -- 96
2019-09-19 04:00:00 11.6 2 Sudoeste 7 Sudoeste 0 -- -- 96
2019-09-19 03:00:00 12 4 Sudoeste 8 Sudoeste 0 -- -- 94
2019-09-19 02:00:00 12.5 4 Sudoeste 9 Oeste 0 -- -- 93
2019-09-19 01:00:00 13.2 4 Sudoeste 6 Sudoeste 0 -- -- 92
2019-09-19 00:00:00 14.1 3 Sudoeste 6 Sur 0 -- -- 89
2019-09-18 23:00:00 15.1 4 Sudoeste 10 Sur 0 -- -- 85
2019-09-18 22:00:00 16.3 6 Sur 12 Sur 0 -- -- 81
2019-09-18 21:00:00 18.9 2 Sur 6 Norte 0 -- -- 73
2019-09-18 20:00:00 20.4 2 Norte 5 Norte 0 -- -- 65
2019-09-18 19:00:00 21.4 0 Calma 14 Norte 0 -- -- 61
2019-09-18 18:00:00 24.4 10 Norte 15 Norte 0 -- -- 51
2019-09-18 17:00:00 24.2 3 Sudoeste 18 Norte 0 -- -- 54
2019-09-18 16:00:00 24.4 6 Norte 14 Norte 0 -- -- 51
2019-09-18 15:00:00 23.1 9 Nordeste 18 Norte 0 -- -- 55
2019-09-18 14:00:00 22 5 Norte 12 Norte 0 -- -- 61
2019-09-18 13:00:00 19.9 7 Norte 12 Norte 0 -- -- 72
2019-09-18 12:00:00 17 8 Norte 11 Norte 0 -- -- 79
2019-09-18 11:00:00 14.5 4 Nordeste 13 Nordeste 0.2 -- -- 85
2019-09-18 10:00:00 12.1 4 Nordeste 8 Norte 0 -- -- 99
2019-09-18 09:00:00 9.8 0 Calma 8 Nordeste 0 -- -- 100
2019-09-18 08:00:00 9.5 0 Calma 7 Sur 0 -- -- 100
2019-09-18 07:00:00 9.7 3 Sur 5 Sudoeste 0 -- -- 100
2019-09-18 06:00:00 9.9 0 Calma 6 Sur 0 -- -- 98
2019-09-18 05:00:00 10.3 0 Calma 12 Nordeste 0 -- -- 96
2019-09-18 04:00:00 10.7 8 Nordeste 13 Nordeste 0 -- -- 94
2019-09-18 03:00:00 10.9 9 Nordeste 16 Norte 0 -- -- 98
2019-09-18 02:00:00 10.6 3 Norte 12 Oeste 0 -- -- 97
2019-09-18 01:00:00 11.1 2 Sudoeste 12 Sudoeste 0 -- -- 96
2019-09-18 00:00:00 12 6 Norte 20 Sur 0.2 -- -- 94